sensor_id;sensor_type;location;lat;lon;timestamp;P1;P2;P0
74434;PMS7003;62867;52.038;29.256;2022-10-23T00:04:18;38;30;18.6
74434;PMS7003;62867;52.038;29.256;2022-10-23T00:09:03;43.5;30.8;18.5
74434;PMS7003;62867;52.038;29.256;2022-10-23T00:14:16;35.2;28.2;17.2
74434;PMS7003;62867;52.038;29.256;2022-10-23T00:19:25;36.4;31;19.2
74434;PMS7003;62867;52.038;29.256;2022-10-23T00:24:25;36.4;30.6;18.6
74434;PMS7003;62867;52.038;29.256;2022-10-23T00:28:59;38.6;30.8;18.8
74434;PMS7003;62867;52.038;29.256;2022-10-23T00:34:11;39.4;32.2;20
74434;PMS7003;62867;52.038;29.256;2022-10-23T00:38:51;41.4;30.8;19.6
74434;PMS7003;62867;52.038;29.256;2022-10-23T00:45:28;38.6;31.4;20
74434;PMS7003;62867;52.038;29.256;2022-10-23T00:49:15;39.8;31.6;20.8
74434;PMS7003;62867;52.038;29.256;2022-10-23T00:54:24;39.8;32;19.4
74434;PMS7003;62867;52.038;29.256;2022-10-23T00:59:07;40.4;31.2;20.2
74434;PMS7003;62867;52.038;29.256;2022-10-23T01:04:19;37.4;30.4;19.4
74434;PMS7003;62867;52.038;29.256;2022-10-23T01:09:14;39;32.8;20.3
74434;PMS7003;62867;52.038;29.256;2022-10-23T01:14:17;44.2;33.8;20.4
74434;PMS7003;62867;52.038;29.256;2022-10-23T01:18:57;42.6;33.4;20.4
74434;PMS7003;62867;52.038;29.256;2022-10-23T01:24:02;39;32.2;20.8
74434;PMS7003;62867;52.038;29.256;2022-10-23T01:28:52;44.4;33.4;20.2
74434;PMS7003;62867;52.038;29.256;2022-10-23T01:34:27;41.2;33.4;19.8
74434;PMS7003;62867;52.038;29.256;2022-10-23T01:39:24;41;32.8;20
74434;PMS7003;62867;52.038;29.256;2022-10-23T01:43:54;39.4;31.8;19.6
74434;PMS7003;62867;52.038;29.256;2022-10-23T01:48:59;39.8;32;20
74434;PMS7003;62867;52.038;29.256;2022-10-23T01:54:24;40.6;33;19.8
74434;PMS7003;62867;52.038;29.256;2022-10-23T01:59:26;38;30.2;19.6
74434;PMS7003;62867;52.038;29.256;2022-10-23T02:04:08;41;33.2;20.2
74434;PMS7003;62867;52.038;29.256;2022-10-23T02:08:45;44.5;34.3;19.8
74434;PMS7003;62867;52.038;29.256;2022-10-23T02:13:47;38;31.4;18.2
74434;PMS7003;62867;52.038;29.256;2022-10-23T02:19:18;36.8;31;19.6
74434;PMS7003;62867;52.038;29.256;2022-10-23T02:24:08;36.6;29.2;18.4
74434;PMS7003;62867;52.038;29.256;2022-10-23T02:29:24;38.6;30.6;18.2
74434;PMS7003;62867;52.038;29.256;2022-10-23T02:34:21;34.4;29.6;18.8
74434;PMS7003;62867;52.038;29.256;2022-10-23T02:39:20;35.2;28.4;17.6
74434;PMS7003;62867;52.038;29.256;2022-10-23T02:44:02;35.2;28.8;19.2
74434;PMS7003;62867;52.038;29.256;2022-10-23T02:49:33;36.8;28.4;18
74434;PMS7003;62867;52.038;29.256;2022-10-23T02:54:22;37.4;28.8;17.8
74434;PMS7003;62867;52.038;29.256;2022-10-23T02:58:47;34.2;29.4;18.2
74434;PMS7003;62867;52.038;29.256;2022-10-23T03:04:02;38.6;31;19
74434;PMS7003;62867;52.038;29.256;2022-10-23T03:08:58;38.5;31.8;20.8
74434;PMS7003;62867;52.038;29.256;2022-10-23T03:14:29;37.8;30.8;18.8
74434;PMS7003;62867;52.038;29.256;2022-10-23T03:19:31;37.4;29.8;18.8
74434;PMS7003;62867;52.038;29.256;2022-10-23T03:24:29;40;32.6;20.2
74434;PMS7003;62867;52.038;29.256;2022-10-23T03:29:21;39.6;31.8;20.2
74434;PMS7003;62867;52.038;29.256;2022-10-23T03:34:20;44;33.2;20
74434;PMS7003;62867;52.038;29.256;2022-10-23T03:39:05;37.8;30.8;19.6
74434;PMS7003;62867;52.038;29.256;2022-10-23T03:44:17;38.2;31;18.6
74434;PMS7003;62867;52.038;29.256;2022-10-23T03:48:45;37.8;32.2;20.2
74434;PMS7003;62867;52.038;29.256;2022-10-23T03:53:45;40.2;31;20
74434;PMS7003;62867;52.038;29.256;2022-10-23T03:58:59;40.8;32;19.6
74434;PMS7003;62867;52.038;29.256;2022-10-23T04:04:10;38.8;31.8;19.2
74434;PMS7003;62867;52.038;29.256;2022-10-23T04:09:31;36.2;29.6;17.8
74434;PMS7003;62867;52.038;29.256;2022-10-23T04:14:12;38;29.8;19.3
74434;PMS7003;62867;52.038;29.256;2022-10-23T04:19:11;32;28;17.2
74434;PMS7003;62867;52.038;29.256;2022-10-23T04:24:31;30.8;26.4;17.2
74434;PMS7003;62867;52.038;29.256;2022-10-23T04:29:31;29;25.8;15.8
74434;PMS7003;62867;52.038;29.256;2022-10-23T04:34:17;30.8;26;16.2
74434;PMS7003;62867;52.038;29.256;2022-10-23T04:38:59;34.8;27.6;16.6
74434;PMS7003;62867;52.038;29.256;2022-10-23T04:43:45;30;24.8;15
74434;PMS7003;62867;52.038;29.256;2022-10-23T04:48:45;31.8;25.4;14.8
74434;PMS7003;62867;52.038;29.256;2022-10-23T04:54:07;32.2;26.6;16
74434;PMS7003;62867;52.038;29.256;2022-10-23T04:58:45;26.6;23.2;15.2
74434;PMS7003;62867;52.038;29.256;2022-10-23T05:03:45;27;24.4;15.6
74434;PMS7003;62867;52.038;29.256;2022-10-23T05:09:19;28.2;24.6;15.8
74434;PMS7003;62867;52.038;29.256;2022-10-23T05:14:27;28;24.5;15.5
74434;PMS7003;62867;52.038;29.256;2022-10-23T05:19:17;29.6;25.4;15.2
74434;PMS7003;62867;52.038;29.256;2022-10-23T05:24:29;27.8;23.4;15.8
74434;PMS7003;62867;52.038;29.256;2022-10-23T05:29:30;32;24.4;16
74434;PMS7003;62867;52.038;29.256;2022-10-23T05:33:59;29.8;24.2;16
74434;PMS7003;62867;52.038;29.256;2022-10-23T05:38:45;29.6;24.6;15.8
74434;PMS7003;62867;52.038;29.256;2022-10-23T05:44:23;33.2;28;17
74434;PMS7003;62867;52.038;29.256;2022-10-23T05:49:32;33.2;27.2;18.4
74434;PMS7003;62867;52.038;29.256;2022-10-23T05:54:17;37.4;29.6;18.2
74434;PMS7003;62867;52.038;29.256;2022-10-23T05:59:23;32.4;27.2;17
74434;PMS7003;62867;52.038;29.256;2022-10-23T06:04:14;31.6;25.2;15.6
74434;PMS7003;62867;52.038;29.256;2022-10-23T06:09:05;32.6;26.8;16.8
74434;PMS7003;62867;52.038;29.256;2022-10-23T06:13:57;34;28.8;17.8
74434;PMS7003;62867;52.038;29.256;2022-10-23T06:19:17;29;24.4;15.6
74434;PMS7003;62867;52.038;29.256;2022-10-23T06:23:46;35.4;28.8;18.4
74434;PMS7003;62867;52.038;29.256;2022-10-23T06:28:45;33.4;28.6;17.6
74434;PMS7003;62867;52.038;29.256;2022-10-23T06:34:02;34.8;28.4;18
74434;PMS7003;62867;52.038;29.256;2022-10-23T06:39:29;32.4;28.4;18.8
74434;PMS7003;62867;52.038;29.256;2022-10-23T06:44:09;38;31;19.4
74434;PMS7003;62867;52.038;29.256;2022-10-23T06:49:02;35.6;28;17.6
74434;PMS7003;62867;52.038;29.256;2022-10-23T06:54:11;34.6;29.4;19.2
74434;PMS7003;62867;52.038;29.256;2022-10-23T06:59:29;35.2;29.8;19.4
74434;PMS7003;62867;52.038;29.256;2022-10-23T07:04:32;34.2;29;19.4
74434;PMS7003;62867;52.038;29.256;2022-10-23T07:09:06;34.8;29.6;19.4
74434;PMS7003;62867;52.038;29.256;2022-10-23T07:13:59;39.5;33;21
74434;PMS7003;62867;52.038;29.256;2022-10-23T07:19:22;38.2;32.2;20.2
74434;PMS7003;62867;52.038;29.256;2022-10-23T07:24:18;37;30.6;20.2
74434;PMS7003;62867;52.038;29.256;2022-10-23T07:29:10;37.8;31;18.8
74434;PMS7003;62867;52.038;29.256;2022-10-23T07:34:08;41;33.2;20.8
74434;PMS7003;62867;52.038;29.256;2022-10-23T07:39:18;38.6;32;20.8
74434;PMS7003;62867;52.038;29.256;2022-10-23T07:44:30;38.2;30.4;18.4
74434;PMS7003;62867;52.038;29.256;2022-10-23T07:49:00;38.2;31.2;19
74434;PMS7003;62867;52.038;29.256;2022-10-23T07:54:30;38.4;31;19.4
74434;PMS7003;62867;52.038;29.256;2022-10-23T07:59:30;34;29.2;18.8
74434;PMS7003;62867;52.038;29.256;2022-10-23T08:04:22;39.2;31.4;18.4
74434;PMS7003;62867;52.038;29.256;2022-10-23T08:09:02;37.4;30.8;20.4
74434;PMS7003;62867;52.038;29.256;2022-10-23T08:14:08;36.3;29.8;19.5
74434;PMS7003;62867;52.038;29.256;2022-10-23T08:19:30;40.8;32.2;19.6
74434;PMS7003;62867;52.038;29.256;2022-10-23T08:24:16;35.4;29;18.8
74434;PMS7003;62867;52.038;29.256;2022-10-23T08:29:22;39;31.4;19.8
74434;PMS7003;62867;52.038;29.256;2022-10-23T08:34:20;39;31.8;18.4
74434;PMS7003;62867;52.038;29.256;2022-10-23T08:38:46;38.4;31;19.6
74434;PMS7003;62867;52.038;29.256;2022-10-23T08:43:46;39.2;30.4;20
74434;PMS7003;62867;52.038;29.256;2022-10-23T08:49:19;39.2;31.8;19.6
74434;PMS7003;62867;52.038;29.256;2022-10-23T08:53:49;45.6;34.4;21.2
74434;PMS7003;62867;52.038;29.256;2022-10-23T08:59:01;39.8;32.2;20.8
74434;PMS7003;62867;52.038;29.256;2022-10-23T09:04:08;37.6;30.2;19.4
74434;PMS7003;62867;52.038;29.256;2022-10-23T09:09:33;35.6;30;20
74434;PMS7003;62867;52.038;29.256;2022-10-23T09:14:24;36.8;29.6;19
74434;PMS7003;62867;52.038;29.256;2022-10-23T09:19:13;34.8;29;19
74434;PMS7003;62867;52.038;29.256;2022-10-23T09:24:00;35.2;29.2;18.8
74434;PMS7003;62867;52.038;29.256;2022-10-23T09:29:29;33.6;28.4;17.6
74434;PMS7003;62867;52.038;29.256;2022-10-23T09:34:30;32.6;28.2;18.2
74434;PMS7003;62867;52.038;29.256;2022-10-23T09:39:18;34.2;28.2;17.8
74434;PMS7003;62867;52.038;29.256;2022-10-23T09:44:12;33.6;28.2;17.6
74434;PMS7003;62867;52.038;29.256;2022-10-23T09:49:00;32.6;28.2;18
74434;PMS7003;62867;52.038;29.256;2022-10-23T09:54:02;31.4;26.4;16.8
74434;PMS7003;62867;52.038;29.256;2022-10-23T09:58:55;33.2;28.4;17.4
74434;PMS7003;62867;52.038;29.256;2022-10-23T10:04:08;33.6;27.6;18.2
74434;PMS7003;62867;52.038;29.256;2022-10-23T10:09:09;31.6;26.8;16.6
74434;PMS7003;62867;52.038;29.256;2022-10-23T10:14:33;28.6;25.6;16.4
74434;PMS7003;62867;52.038;29.256;2022-10-23T10:18:46;31.3;26.8;17.3
74434;PMS7003;62867;52.038;29.256;2022-10-23T10:24:27;30.6;26;16.6
74434;PMS7003;62867;52.038;29.256;2022-10-23T10:29:20;32.6;27.4;17.4
74434;PMS7003;62867;52.038;29.256;2022-10-23T10:34:09;34;28.8;18.6
74434;PMS7003;62867;52.038;29.256;2022-10-23T10:38:46;36.6;30;18.8
74434;PMS7003;62867;52.038;29.256;2022-10-23T10:44:04;34.6;28.2;17.2
74434;PMS7003;62867;52.038;29.256;2022-10-23T10:49:31;33.8;26.8;17.6
74434;PMS7003;62867;52.038;29.256;2022-10-23T10:54:09;30.6;24.8;16
74434;PMS7003;62867;52.038;29.256;2022-10-23T10:59:29;32;26.4;16.4
74434;PMS7003;62867;52.038;29.256;2022-10-23T11:03:58;27.8;23.8;15.4
74434;PMS7003;62867;52.038;29.256;2022-10-23T11:09:10;30;27.2;16
74434;PMS7003;62867;52.038;29.256;2022-10-23T11:14:13;28.8;23.4;14.6
74434;PMS7003;62867;52.038;29.256;2022-10-23T11:19:17;25.3;22.8;14.5
74434;PMS7003;62867;52.038;29.256;2022-10-23T11:24:04;33;28.4;16.8
74434;PMS7003;62867;52.038;29.256;2022-10-23T11:28:49;38.2;29.8;18.2
74434;PMS7003;62867;52.038;29.256;2022-10-23T11:34:05;39.8;32.2;20
74434;PMS7003;62867;52.038;29.256;2022-10-23T11:39:30;35.6;30.4;19.2
74434;PMS7003;62867;52.038;29.256;2022-10-23T11:44:44;34.4;27.6;17.2
74434;PMS7003;62867;52.038;29.256;2022-10-23T11:49:20;35.2;29.8;19.6
74434;PMS7003;62867;52.038;29.256;2022-10-23T11:53:46;33.4;28.6;18
74434;PMS7003;62867;52.038;29.256;2022-10-23T11:59:30;37.6;30.4;19.6
74434;PMS7003;62867;52.038;29.256;2022-10-23T12:04:29;45.8;35;22
74434;PMS7003;62867;52.038;29.256;2022-10-23T12:08:55;39;29.2;16.6
74434;PMS7003;62867;52.038;29.256;2022-10-23T12:14:00;38.4;30.8;19
74434;PMS7003;62867;52.038;29.256;2022-10-23T12:18:47;32;25.8;15.8
74434;PMS7003;62867;52.038;29.256;2022-10-23T12:23:52;41.4;30.2;18.4
74434;PMS7003;62867;52.038;29.256;2022-10-23T12:28:56;36.6;28.8;17.6
74434;PMS7003;62867;52.038;29.256;2022-10-23T12:34:04;74.8;55;29.4
74434;PMS7003;62867;52.038;29.256;2022-10-23T12:39:28;71.4;52.8;28.6
74434;PMS7003;62867;52.038;29.256;2022-10-23T12:44:22;65;47.2;26.6
74434;PMS7003;62867;52.038;29.256;2022-10-23T12:49:02;51;35.8;21.6
74434;PMS7003;62867;52.038;29.256;2022-10-23T12:54:31;40.4;30.6;18
74434;PMS7003;62867;52.038;29.256;2022-10-23T12:59:12;44.6;32.8;19.8
74434;PMS7003;62867;52.038;29.256;2022-10-23T13:04:01;40.6;32.2;19.8
74434;PMS7003;62867;52.038;29.256;2022-10-23T13:09:13;38.2;30.8;19.2
74434;PMS7003;62867;52.038;29.256;2022-10-23T13:14:06;37;29.8;18.8
74434;PMS7003;62867;52.038;29.256;2022-10-23T13:19:30;42.3;31.5;20.3
74434;PMS7003;62867;52.038;29.256;2022-10-23T13:24:18;39;30.8;18.6
74434;PMS7003;62867;52.038;29.256;2022-10-23T13:29:30;43;33.8;21.6
74434;PMS7003;62867;52.038;29.256;2022-10-23T13:33:48;38.4;32.4;19.8
74434;PMS7003;62867;52.038;29.256;2022-10-23T13:39:23;34.8;27.8;17.6
74434;PMS7003;62867;52.038;29.256;2022-10-23T13:43:46;28;24;14.6
74434;PMS7003;62867;52.038;29.256;2022-10-23T13:49:02;30.6;25.4;16.4
74434;PMS7003;62867;52.038;29.256;2022-10-23T13:54:02;32.8;27.2;17.4
74434;PMS7003;62867;52.038;29.256;2022-10-23T13:58:46;29;24.2;14.4
74434;PMS7003;62867;52.038;29.256;2022-10-23T14:04:00;31;26.2;15.6
74434;PMS7003;62867;52.038;29.256;2022-10-23T14:09:32;32.8;28.4;18.2
74434;PMS7003;62867;52.038;29.256;2022-10-23T14:14:18;34.4;26.4;16.4
74434;PMS7003;62867;52.038;29.256;2022-10-23T14:19:20;30.4;25.2;16.4
74434;PMS7003;62867;52.038;29.256;2022-10-23T14:24:10;28.5;26;16.3
74434;PMS7003;62867;52.038;29.256;2022-10-23T14:29:32;29.8;24.8;15.4
74434;PMS7003;62867;52.038;29.256;2022-10-23T14:34:30;27.2;24.2;14.8
74434;PMS7003;62867;52.038;29.256;2022-10-23T14:39:32;24.2;21;13
74434;PMS7003;62867;52.038;29.256;2022-10-23T14:44:02;24.4;20.2;13
74434;PMS7003;62867;52.038;29.256;2022-10-23T14:48:46;34.2;27;17.4
74434;PMS7003;62867;52.038;29.256;2022-10-23T14:53:46;29.4;23.8;14.4
74434;PMS7003;62867;52.038;29.256;2022-10-23T14:58:46;29;24.6;16
74434;PMS7003;62867;52.038;29.256;2022-10-23T15:04:10;27;21.6;14.2
74434;PMS7003;62867;52.038;29.256;2022-10-23T15:09:18;28;24;14.8
74434;PMS7003;62867;52.038;29.256;2022-10-23T15:14:14;30;24.4;15.4
74434;PMS7003;62867;52.038;29.256;2022-10-23T15:19:00;29.2;25;14.8
74434;PMS7003;62867;52.038;29.256;2022-10-23T15:24:30;30.3;24;14.8
74434;PMS7003;62867;52.038;29.256;2022-10-23T15:29:06;30.2;25.4;14.8
74434;PMS7003;62867;52.038;29.256;2022-10-23T15:34:00;30.4;25.4;15.2
74434;PMS7003;62867;52.038;29.256;2022-10-23T15:38:46;30.8;26.2;16.2
74434;PMS7003;62867;52.038;29.256;2022-10-23T15:44:27;32;25.2;16
74434;PMS7003;62867;52.038;29.256;2022-10-23T15:49:32;31.2;26;15.6
74434;PMS7003;62867;52.038;29.256;2022-10-23T15:54:19;33.8;27;16.6
74434;PMS7003;62867;52.038;29.256;2022-10-23T15:59:30;33.6;27.4;17.2
74434;PMS7003;62867;52.038;29.256;2022-10-23T16:03:48;29;26.4;15.8
74434;PMS7003;62867;52.038;29.256;2022-10-23T16:09:18;31.2;25.8;15.8
74434;PMS7003;62867;52.038;29.256;2022-10-23T16:14:09;31.4;25.2;15
74434;PMS7003;62867;52.038;29.256;2022-10-23T16:19:14;29;23.8;14.4
74434;PMS7003;62867;52.038;29.256;2022-10-23T16:23:46;31.3;26.3;14.3
74434;PMS7003;62867;52.038;29.256;2022-10-23T16:29:00;28.6;24.6;14.6
74434;PMS7003;62867;52.038;29.256;2022-10-23T16:34:02;32;24.4;14
74434;PMS7003;62867;52.038;29.256;2022-10-23T16:39:30;28.6;24.2;14.2
74434;PMS7003;62867;52.038;29.256;2022-10-23T16:44:32;31;25.8;15.4
74434;PMS7003;62867;52.038;29.256;2022-10-23T16:49:12;29.8;27;14.4
74434;PMS7003;62867;52.038;29.256;2022-10-23T16:54:20;29.6;25;15
74434;PMS7003;62867;52.038;29.256;2022-10-23T16:59:30;30.8;25.8;15.4
74434;PMS7003;62867;52.038;29.256;2022-10-23T17:04:30;32.8;25.2;15
74434;PMS7003;62867;52.038;29.256;2022-10-23T17:08:52;29.6;25;15
74434;PMS7003;62867;52.038;29.256;2022-10-23T17:14:03;28.2;22.2;13.6
74434;PMS7003;62867;52.038;29.256;2022-10-23T17:18:46;27.6;22.4;14.2
74434;PMS7003;62867;52.038;29.256;2022-10-23T17:23:46;25;20.5;12.5
74434;PMS7003;62867;52.038;29.256;2022-10-23T17:29:10;29.2;22.2;13.4
74434;PMS7003;62867;52.038;29.256;2022-10-23T17:34:09;23.4;20.8;12.8
74434;PMS7003;62867;52.038;29.256;2022-10-23T17:39:19;25;21;12.6
74434;PMS7003;62867;52.038;29.256;2022-10-23T17:44:20;27.2;22.6;13
74434;PMS7003;62867;52.038;29.256;2022-10-23T17:49:12;29;23.6;13.4
74434;PMS7003;62867;52.038;29.256;2022-10-23T17:54:32;27.8;22;12.4
74434;PMS7003;62867;52.038;29.256;2022-10-23T17:58:59;25.4;20.8;13.2
74434;PMS7003;62867;52.038;29.256;2022-10-23T18:04:00;24.6;21;12.4
74434;PMS7003;62867;52.038;29.256;2022-10-23T18:08:58;23;18.6;11
74434;PMS7003;62867;52.038;29.256;2022-10-23T18:13:55;22.4;17;10.4
74434;PMS7003;62867;52.038;29.256;2022-10-23T18:19:32;25.2;19.4;12
74434;PMS7003;62867;52.038;29.256;2022-10-23T18:24:18;22.3;18.5;11.8
74434;PMS7003;62867;52.038;29.256;2022-10-23T18:29:32;20.4;18;11.4
74434;PMS7003;62867;52.038;29.256;2022-10-23T18:34:24;23;19.6;12
74434;PMS7003;62867;52.038;29.256;2022-10-23T18:39:15;19.6;16.4;10.2
74434;PMS7003;62867;52.038;29.256;2022-10-23T18:43:46;18;15.8;9.4
74434;PMS7003;62867;52.038;29.256;2022-10-23T18:49:03;20.8;17.4;10.4
74434;PMS7003;62867;52.038;29.256;2022-10-23T18:53:46;22.6;18.6;11.6
74434;PMS7003;62867;52.038;29.256;2022-10-23T18:58:46;23.8;18;11.4
74434;PMS7003;62867;52.038;29.256;2022-10-23T19:04:02;24.6;21.2;12.2
74434;PMS7003;62867;52.038;29.256;2022-10-23T19:09:28;27;22.4;13
74434;PMS7003;62867;52.038;29.256;2022-10-23T19:14:28;22.4;18;11.6
74434;PMS7003;62867;52.038;29.256;2022-10-23T19:19:10;21.8;18.6;11.2
74434;PMS7003;62867;52.038;29.256;2022-10-23T19:24:12;23.8;18.4;11
74434;PMS7003;62867;52.038;29.256;2022-10-23T19:29:20;25.3;18.3;9.8
74434;PMS7003;62867;52.038;29.256;2022-10-23T19:34:30;20.8;17;10
74434;PMS7003;62867;52.038;29.256;2022-10-23T19:39:26;22.2;15.8;10.4
74434;PMS7003;62867;52.038;29.256;2022-10-23T19:43:52;19;16.6;10.2
74434;PMS7003;62867;52.038;29.256;2022-10-23T19:49:08;22;16.8;10
74434;PMS7003;62867;52.038;29.256;2022-10-23T19:53:46;21;15.4;9.6
74434;PMS7003;62867;52.038;29.256;2022-10-23T19:58:56;17.2;14.4;9.2
74434;PMS7003;62867;52.038;29.256;2022-10-23T20:03:54;16.2;13.2;8.4
74434;PMS7003;62867;52.038;29.256;2022-10-23T20:08:58;17.8;14.6;8.6
74434;PMS7003;62867;52.038;29.256;2022-10-23T20:14:08;19.4;13.8;8
74434;PMS7003;62867;52.038;29.256;2022-10-23T20:19:28;16.6;14;8.8
74434;PMS7003;62867;52.038;29.256;2022-10-23T20:24:18;18.4;15.4;9.6
74434;PMS7003;62867;52.038;29.256;2022-10-23T20:29:30;16.3;13;8
74434;PMS7003;62867;52.038;29.256;2022-10-23T20:34:32;17;14.8;9.2
74434;PMS7003;62867;52.038;29.256;2022-10-23T20:39:00;16.2;13.6;8.8
74434;PMS7003;62867;52.038;29.256;2022-10-23T20:43:46;19;14;8.4
74434;PMS7003;62867;52.038;29.256;2022-10-23T20:49:18;15.6;13.4;8.6
74434;PMS7003;62867;52.038;29.256;2022-10-23T20:54:32;16;13;8.4
74434;PMS7003;62867;52.038;29.256;2022-10-23T20:59:18;18.4;14.6;9.2
74434;PMS7003;62867;52.038;29.256;2022-10-23T21:04:25;19.4;15.4;8.4
74434;PMS7003;62867;52.038;29.256;2022-10-23T21:09:28;16.6;14;9
74434;PMS7003;62867;52.038;29.256;2022-10-23T21:13:56;17.2;13.2;8
74434;PMS7003;62867;52.038;29.256;2022-10-23T21:19:00;16;13.4;8
74434;PMS7003;62867;52.038;29.256;2022-10-23T21:24:18;14.6;13;8
74434;PMS7003;62867;52.038;29.256;2022-10-23T21:29:02;15;12.3;7.8
74434;PMS7003;62867;52.038;29.256;2022-10-23T21:34:00;14;11.4;6.8
74434;PMS7003;62867;52.038;29.256;2022-10-23T21:38:46;14;10.2;6.2
74434;PMS7003;62867;52.038;29.256;2022-10-23T21:44:30;12.6;11.2;6.4
74434;PMS7003;62867;52.038;29.256;2022-10-23T21:49:24;12;9.4;6.2
74434;PMS7003;62867;52.038;29.256;2022-10-23T21:54:22;13;10;6
74434;PMS7003;62867;52.038;29.256;2022-10-23T21:58:46;14;10.4;6.8
74434;PMS7003;62867;52.038;29.256;2022-10-23T22:04:32;15;11;6.8
74434;PMS7003;62867;52.038;29.256;2022-10-23T22:09:31;15.8;11;6.8
74434;PMS7003;62867;52.038;29.256;2022-10-23T22:13:52;14.2;11.4;6.8
74434;PMS7003;62867;52.038;29.256;2022-10-23T22:19:02;15;11.4;7
74434;PMS7003;62867;52.038;29.256;2022-10-23T22:24:02;15.2;11.4;6.8
74434;PMS7003;62867;52.038;29.256;2022-10-23T22:29:19;14.3;11.8;6.8
74434;PMS7003;62867;52.038;29.256;2022-10-23T22:34:11;14.4;10;6.4
74434;PMS7003;62867;52.038;29.256;2022-10-23T22:39:09;14.4;10;6.2
74434;PMS7003;62867;52.038;29.256;2022-10-23T22:44:30;14.2;10.4;6.2
74434;PMS7003;62867;52.038;29.256;2022-10-23T22:49:30;13.8;10.6;6.4
74434;PMS7003;62867;52.038;29.256;2022-10-23T22:54:16;14.4;11;6.4
74434;PMS7003;62867;52.038;29.256;2022-10-23T22:59:30;12.4;10;5.8
74434;PMS7003;62867;52.038;29.256;2022-10-23T23:04:30;11.4;10.4;6.4
74434;PMS7003;62867;52.038;29.256;2022-10-23T23:08:46;12.4;9.6;5.6
74434;PMS7003;62867;52.038;29.256;2022-10-23T23:13:46;16.2;12.2;6.6
74434;PMS7003;62867;52.038;29.256;2022-10-23T23:19:24;13.4;11;6.2
74434;PMS7003;62867;52.038;29.256;2022-10-23T23:24:28;13.8;10.2;5.8
74434;PMS7003;62867;52.038;29.256;2022-10-23T23:29:14;13.8;10.3;5.5
74434;PMS7003;62867;52.038;29.256;2022-10-23T23:34:20;11.4;9.8;5.8
74434;PMS7003;62867;52.038;29.256;2022-10-23T23:39:20;12.8;10.8;6.4
74434;PMS7003;62867;52.038;29.256;2022-10-23T23:43:46;12.8;9.2;5.8
74434;PMS7003;62867;52.038;29.256;2022-10-23T23:49:06;13.6;10.6;6.4
74434;PMS7003;62867;52.038;29.256;2022-10-23T23:54:16;12.6;10.2;5.4
74434;PMS7003;62867;52.038;29.256;2022-10-23T23:59:00;11.8;9.8;6.4
